createdAt,value
2023-05-14T00:06:07.959Z,96006.66
2023-05-14T00:16:12.143Z,96011.81
2023-05-14T00:26:14.534Z,96002.34
2023-05-14T00:36:18.266Z,95988.63
2023-05-14T00:46:20.771Z,95977.13
2023-05-14T00:56:24.854Z,95974.34
2023-05-14T01:06:32.482Z,95962.53
2023-05-14T01:16:38.347Z,95961.22
2023-05-14T01:26:42.110Z,95952.84
2023-05-14T01:36:44.847Z,95952.00
2023-05-14T01:46:48.552Z,95943.97
2023-05-14T01:56:51.168Z,95946.66
2023-05-14T02:06:54.921Z,95943.94
2023-05-14T02:16:57.345Z,95951.91
2023-05-14T02:27:01.215Z,95947.88
2023-05-14T02:37:03.824Z,95939.53
2023-05-14T02:47:07.864Z,95947.56
2023-05-14T02:57:10.303Z,95950.81
2023-05-14T03:07:14.184Z,95947.25
2023-05-14T03:17:16.686Z,95947.56
2023-05-14T03:27:20.844Z,95944.59
2023-05-14T03:37:23.395Z,95948.06
2023-05-14T03:47:27.168Z,95949.19
2023-05-14T03:57:29.594Z,95948.16
2023-05-14T04:07:33.296Z,95951.34
2023-05-14T04:17:35.727Z,95937.66
2023-05-14T04:27:39.459Z,95930.38
2023-05-14T04:37:41.834Z,95932.00
2023-05-14T04:47:45.905Z,95931.19
2023-05-14T04:57:49.202Z,95946.50
2023-05-14T05:07:52.940Z,95947.06
2023-05-14T05:17:55.383Z,95935.28
2023-05-14T05:27:59.169Z,95944.38
2023-05-14T05:38:01.965Z,95935.78
2023-05-14T05:48:06.188Z,95946.09
2023-05-14T05:58:08.644Z,95935.63
2023-05-14T06:08:12.418Z,95933.88
2023-05-14T06:18:14.779Z,95938.13
2023-05-14T06:28:18.572Z,95950.00
2023-05-14T06:38:20.924Z,95947.25
2023-05-14T06:48:24.716Z,95945.44
2023-05-14T06:58:27.182Z,95947.13
2023-05-14T07:08:30.902Z,95941.28
2023-05-14T07:18:33.323Z,95942.75
2023-05-14T07:28:37.090Z,95937.34
2023-05-14T07:38:39.474Z,95940.81
2023-05-14T07:48:43.216Z,95941.16
2023-05-14T07:58:46.201Z,95928.28
2023-05-14T08:08:49.905Z,95936.13
2023-05-14T08:18:52.455Z,95930.50
2023-05-14T08:28:56.257Z,95924.75
2023-05-14T08:38:58.639Z,95924.47
2023-05-14T08:49:06.143Z,95931.34
2023-05-14T08:59:08.532Z,95933.25
2023-05-14T09:09:13.049Z,95922.50
2023-05-14T09:19:16.002Z,95921.19
2023-05-14T09:29:20.004Z,95917.97
2023-05-14T09:39:23.680Z,95903.97
2023-05-14T09:49:27.381Z,95898.75
2023-05-14T09:59:29.770Z,95888.69
2023-05-14T10:09:33.483Z,95887.34
2023-05-14T10:19:36.875Z,95887.31
2023-05-14T10:29:41.971Z,95878.03
2023-05-14T10:39:45.370Z,95870.28
2023-05-14T10:49:50.029Z,95865.28
2023-05-14T10:59:54.849Z,95855.59
2023-05-14T11:10:00.902Z,95845.78
2023-05-14T11:20:05.022Z,95840.50
2023-05-14T11:30:13.194Z,95824.38
2023-05-14T11:40:16.473Z,95815.59
2023-05-14T11:50:20.711Z,95813.59
2023-05-14T12:00:24.636Z,95804.88
2023-05-14T12:10:28.608Z,95801.22
2023-05-14T12:20:30.995Z,95782.47
2023-05-14T12:30:39.368Z,95774.91
2023-05-14T12:40:44.572Z,95767.44
2023-05-14T12:50:48.772Z,95754.13
2023-05-14T13:00:53.023Z,95753.13
2023-05-14T13:10:57.020Z,95743.88
2023-05-14T13:20:59.392Z,95737.13
2023-05-14T13:31:07.501Z,95728.44
2023-05-14T13:41:09.968Z,95716.09
2023-05-14T13:51:13.776Z,95715.41
2023-05-14T14:01:16.363Z,95697.59
2023-05-14T14:11:20.635Z,95700.44
2023-05-14T14:21:23.086Z,95698.53
2023-05-14T14:31:26.887Z,95701.63
2023-05-14T14:41:29.343Z,95706.25
2023-05-14T14:51:33.160Z,95717.28
2023-05-14T15:01:35.675Z,95706.72
2023-05-14T15:11:39.587Z,95700.16
2023-05-14T15:21:41.983Z,95693.38
2023-05-14T15:31:46.144Z,95702.25
2023-05-14T15:41:48.527Z,95694.41
2023-05-14T15:51:52.258Z,95695.81
2023-05-14T16:01:54.727Z,95694.09
2023-05-14T16:11:58.502Z,95686.06
2023-05-14T16:22:00.945Z,95690.16
2023-05-14T16:32:04.788Z,95695.03
2023-05-14T16:42:07.200Z,95707.72
2023-05-14T16:52:10.949Z,95699.72
2023-05-14T17:02:13.467Z,95696.09
2023-05-14T17:12:17.174Z,95695.44
2023-05-14T17:22:19.654Z,95704.88
2023-05-14T17:32:23.455Z,95697.69
2023-05-14T17:42:26.107Z,95700.75
2023-05-14T17:52:29.849Z,95714.00
2023-05-14T18:02:32.278Z,95711.84
2023-05-14T18:12:36.025Z,95718.81
2023-05-14T18:22:38.466Z,95719.75
2023-05-14T18:32:43.591Z,95725.69
2023-05-14T18:42:46.179Z,95725.22
2023-05-14T18:52:49.893Z,95715.38
2023-05-14T19:02:52.400Z,95720.81
2023-05-14T19:12:56.295Z,95728.44
2023-05-14T19:22:59.703Z,95741.97
2023-05-14T19:33:03.483Z,95750.03
2023-05-14T19:43:07.796Z,95754.66
2023-05-14T19:53:11.518Z,95751.44
2023-05-14T20:03:14.036Z,95751.97
2023-05-14T20:13:17.886Z,95756.53
2023-05-14T20:23:20.699Z,95752.53
2023-05-14T20:33:24.521Z,95740.97
2023-05-14T20:43:27.318Z,95740.47
2023-05-14T20:53:31.123Z,95721.91
2023-05-14T21:03:33.641Z,95719.75
2023-05-14T21:13:37.506Z,95720.28
2023-05-14T21:23:40.012Z,95725.38
2023-05-14T21:33:43.736Z,95735.06
2023-05-14T21:43:46.833Z,95733.97
2023-05-14T21:53:50.570Z,95724.75
2023-05-14T22:03:53.368Z,95729.34
2023-05-14T22:13:57.869Z,95721.53
2023-05-14T22:24:00.330Z,95723.97
2023-05-14T22:34:04.062Z,95723.97
2023-05-14T22:44:06.475Z,95708.63
2023-05-14T22:54:10.913Z,95703.19
2023-05-14T23:04:13.374Z,95699.16
2023-05-14T23:14:17.834Z,95688.38
2023-05-14T23:24:20.259Z,95688.09
2023-05-14T23:34:24.012Z,95692.06
2023-05-14T23:44:26.409Z,95681.31
2023-05-14T23:54:30.184Z,95667.63
